createdAt,value
2022-12-01T00:00:36.960Z,0.43
2022-12-01T00:03:39.244Z,0.38
2022-12-01T00:06:40.777Z,0.30
2022-12-01T00:10:00.810Z,0.40
2022-12-01T00:13:05.082Z,0.35
2022-12-01T00:16:14.151Z,0.40
2022-12-01T00:19:15.724Z,0.50
2022-12-01T00:22:17.458Z,0.40
2022-12-01T00:25:20.274Z,0.38
2022-12-01T00:28:21.799Z,0.40
2022-12-01T00:31:24.065Z,0.50
2022-12-01T00:34:25.701Z,0.30
2022-12-01T00:37:30.688Z,0.50
2022-12-01T00:40:32.204Z,0.40
2022-12-01T00:43:33.843Z,0.45
2022-12-01T00:46:35.461Z,0.40
2022-12-01T00:49:37.032Z,0.40
2022-12-01T00:52:38.574Z,0.40
2022-12-01T00:55:40.522Z,0.40
2022-12-01T00:58:42.376Z,0.30
2022-12-01T01:01:43.995Z,0.40
2022-12-01T01:04:45.703Z,0.50
2022-12-01T01:07:47.302Z,0.40
2022-12-01T01:10:49.517Z,0.30
2022-12-01T01:13:51.248Z,0.30
2022-12-01T01:16:52.811Z,0.43
2022-12-01T01:19:54.400Z,0.50
2022-12-01T01:22:55.991Z,0.30
2022-12-01T01:26:06.601Z,0.32
2022-12-01T01:29:08.248Z,0.70
2022-12-01T01:32:09.775Z,0.30
2022-12-01T01:35:11.304Z,0.30
2022-12-01T01:38:12.866Z,0.30
2022-12-01T01:41:14.473Z,0.40
2022-12-01T01:44:52.134Z,0.43
2022-12-01T01:47:55.607Z,0.40
2022-12-01T01:50:57.323Z,0.38
2022-12-01T01:54:03.933Z,0.30
2022-12-01T01:57:07.800Z,0.30
2022-12-01T02:00:16.082Z,0.28
2022-12-01T02:03:19.474Z,0.28
2022-12-01T02:06:22.449Z,0.50
2022-12-01T02:09:24.737Z,0.47
2022-12-01T02:12:48.041Z,0.30
2022-12-01T02:16:17.430Z,0.38
2022-12-01T02:19:33.997Z,0.30
2022-12-01T02:23:09.578Z,0.40
2022-12-01T02:26:17.131Z,0.40
2022-12-01T02:29:24.731Z,0.40
2022-12-01T02:32:45.307Z,1.05
2022-12-01T02:36:04.851Z,0.50
2022-12-01T02:39:14.560Z,0.65
2022-12-01T02:42:53.874Z,1.05
2022-12-01T02:46:18.523Z,0.88
2022-12-01T02:49:26.285Z,1.45
2022-12-01T02:52:29.076Z,1.25
2022-12-01T02:55:30.639Z,1.20
2022-12-01T02:58:32.193Z,0.75
2022-12-01T03:01:41.450Z,0.98
2022-12-01T03:05:07.739Z,1.30
2022-12-01T03:08:26.934Z,0.88
2022-12-01T03:11:42.051Z,0.57
2022-12-01T03:15:03.435Z,0.95
2022-12-01T03:18:10.699Z,0.60
2022-12-01T03:21:24.823Z,0.73
2022-12-01T03:24:29.516Z,0.68
2022-12-01T03:27:35.551Z,0.50
2022-12-01T03:30:37.932Z,0.68
2022-12-01T03:33:47.863Z,0.60
2022-12-01T03:37:00.269Z,0.50
2022-12-01T03:40:06.372Z,0.40
2022-12-01T03:43:12.107Z,0.65
2022-12-01T03:46:19.575Z,0.55
2022-12-01T03:49:23.896Z,0.40
2022-12-01T03:52:37.271Z,0.50
2022-12-01T03:55:44.908Z,0.50
2022-12-01T03:58:48.932Z,0.60
2022-12-01T04:01:51.477Z,0.60
2022-12-01T04:04:53.559Z,0.55
2022-12-01T04:07:55.353Z,0.30
2022-12-01T04:10:57.470Z,0.50
2022-12-01T04:13:59.034Z,0.77
2022-12-01T04:17:00.543Z,0.82
2022-12-01T04:20:02.151Z,0.60
2022-12-01T04:23:03.707Z,0.80
2022-12-01T04:26:06.706Z,0.30
2022-12-01T04:29:11.245Z,0.40
2022-12-01T04:32:13.548Z,0.52
2022-12-01T04:35:15.149Z,0.52
2022-12-01T04:38:16.653Z,0.70
2022-12-01T04:41:18.672Z,0.47
2022-12-01T04:44:20.267Z,0.57
2022-12-01T04:47:21.782Z,0.55
2022-12-01T04:50:23.306Z,0.50
2022-12-01T04:53:24.897Z,0.55
2022-12-01T04:56:26.460Z,0.50
2022-12-01T04:59:28.014Z,0.52
2022-12-01T05:02:29.605Z,0.40
2022-12-01T05:05:31.487Z,0.50
2022-12-01T05:08:34.288Z,0.60
2022-12-01T05:11:35.896Z,0.50
2022-12-01T05:14:37.411Z,0.50
2022-12-01T05:17:38.955Z,0.57
2022-12-01T05:20:58.914Z,0.40
2022-12-01T05:24:00.448Z,0.50
2022-12-01T05:27:01.999Z,0.47
2022-12-01T05:30:04.172Z,0.57
2022-12-01T05:33:05.733Z,0.70
2022-12-01T05:36:07.570Z,0.70
2022-12-01T05:39:09.140Z,0.60
2022-12-01T05:42:10.670Z,0.80
2022-12-01T05:45:12.256Z,0.80
2022-12-01T05:48:13.851Z,0.60
2022-12-01T05:51:17.698Z,0.70
2022-12-01T05:54:19.278Z,0.75
2022-12-01T05:57:20.813Z,0.65
2022-12-01T06:00:22.531Z,0.50
2022-12-01T06:03:24.031Z,0.60
2022-12-01T06:06:25.833Z,0.95
2022-12-01T06:09:27.402Z,1.00
2022-12-01T06:12:29.009Z,0.45
2022-12-01T06:15:30.552Z,0.65
2022-12-01T06:18:35.816Z,1.05
2022-12-01T06:21:37.365Z,1.00
2022-12-01T06:24:38.884Z,1.10
2022-12-01T06:27:40.454Z,0.80
2022-12-01T06:30:42.026Z,1.48
2022-12-01T06:33:43.584Z,1.27
2022-12-01T06:36:45.184Z,0.90
2022-12-01T06:39:46.986Z,1.15
2022-12-01T06:42:48.961Z,1.52
2022-12-01T06:45:51.047Z,2.05
2022-12-01T06:48:53.958Z,1.10
2022-12-01T06:51:55.618Z,1.10
2022-12-01T06:54:57.185Z,1.00
2022-12-01T06:58:02.207Z,1.30
2022-12-01T07:01:11.820Z,1.13
2022-12-01T07:04:13.617Z,1.00
2022-12-01T07:07:15.145Z,0.95
2022-12-01T07:10:16.732Z,1.38
2022-12-01T07:13:18.242Z,1.88
2022-12-01T07:16:19.808Z,1.27
2022-12-01T07:19:21.416Z,1.83
2022-12-01T07:22:28.142Z,0.82
2022-12-01T07:25:32.664Z,1.13
2022-12-01T07:28:34.517Z,1.23
2022-12-01T07:31:37.032Z,2.40
2022-12-01T07:34:38.647Z,2.30
2022-12-01T07:37:40.272Z,3.05
2022-12-01T07:40:41.803Z,3.15
2022-12-01T07:43:43.519Z,2.83
2022-12-01T07:46:45.122Z,2.58
2022-12-01T07:49:47.004Z,2.00
2022-12-01T07:52:51.709Z,1.90
2022-12-01T07:55:53.273Z,2.10
2022-12-01T07:58:55.214Z,1.85
2022-12-01T08:01:56.803Z,2.35
2022-12-01T08:04:58.335Z,1.90
2022-12-01T08:07:59.943Z,2.65
2022-12-01T08:11:04.924Z,2.17
2022-12-01T08:14:06.519Z,2.17
2022-12-01T08:17:08.158Z,2.40
2022-12-01T08:20:10.011Z,1.98
2022-12-01T08:23:11.619Z,1.90
2022-12-01T08:26:16.265Z,1.75
2022-12-01T08:29:20.398Z,2.03
2022-12-01T08:32:22.272Z,2.00
2022-12-01T08:35:24.533Z,1.50
2022-12-01T08:38:26.060Z,1.67
2022-12-01T08:41:28.561Z,1.30
2022-12-01T08:44:30.232Z,1.75
2022-12-01T08:47:31.775Z,2.00
2022-12-01T08:50:33.344Z,2.58
2022-12-01T08:53:40.167Z,2.80
2022-12-01T08:56:45.414Z,2.45
2022-12-01T08:59:47.571Z,2.92
2022-12-01T09:02:49.942Z,2.20
2022-12-01T09:05:51.529Z,2.03
2022-12-01T09:08:53.087Z,2.70
2022-12-01T09:11:55.742Z,2.10
2022-12-01T09:14:57.297Z,2.97
2022-12-01T09:17:58.869Z,2.67
2022-12-01T09:21:00.914Z,2.78
2022-12-01T09:24:03.814Z,2.83
2022-12-01T09:27:05.996Z,2.83
2022-12-01T09:30:08.180Z,4.45
2022-12-01T09:33:10.175Z,3.92
2022-12-01T09:36:12.035Z,3.40
2022-12-01T09:39:15.642Z,2.53
2022-12-01T09:42:18.665Z,3.20
2022-12-01T09:45:30.079Z,2.90
2022-12-01T09:48:42.508Z,3.85
2022-12-01T09:51:44.574Z,4.90
2022-12-01T09:54:49.487Z,3.40
2022-12-01T09:57:54.114Z,3.90
2022-12-01T10:00:55.847Z,3.38
2022-12-01T10:04:01.345Z,3.08
2022-12-01T10:07:14.033Z,2.25
2022-12-01T10:10:22.983Z,2.92
2022-12-01T10:13:27.367Z,2.72
2022-12-01T10:16:48.723Z,2.67
2022-12-01T10:20:03.530Z,2.30
2022-12-01T10:23:41.823Z,2.72
2022-12-01T10:26:49.875Z,3.20
2022-12-01T10:30:15.493Z,4.13
2022-12-01T10:33:20.023Z,3.08
2022-12-01T10:36:22.582Z,2.47
2022-12-01T10:39:41.640Z,3.38
2022-12-01T10:42:47.645Z,2.92
2022-12-01T10:45:49.840Z,3.50
2022-12-01T10:48:54.947Z,2.42
2022-12-01T10:51:58.235Z,3.05
2022-12-01T10:55:00.875Z,3.38
2022-12-01T10:58:14.921Z,4.22
2022-12-01T11:01:28.714Z,2.20
2022-12-01T11:04:46.169Z,2.30
2022-12-01T11:07:48.032Z,2.45
2022-12-01T11:10:50.656Z,1.83
2022-12-01T11:13:53.857Z,1.80
2022-12-01T11:16:55.427Z,2.30
2022-12-01T11:19:57.251Z,2.40
2022-12-01T11:23:25.001Z,1.63
2022-12-01T11:26:30.407Z,1.38
2022-12-01T11:29:37.583Z,1.70
2022-12-01T11:32:40.014Z,1.80
2022-12-01T11:35:48.379Z,2.25
2022-12-01T11:38:54.492Z,1.83
2022-12-01T11:42:03.674Z,2.40
2022-12-01T11:45:20.467Z,1.95
2022-12-01T11:48:30.767Z,1.98
2022-12-01T11:51:37.672Z,1.20
2022-12-01T11:54:55.919Z,1.52
2022-12-01T11:58:03.948Z,1.02
2022-12-01T12:01:21.975Z,1.73
2022-12-01T12:04:42.162Z,1.70
2022-12-01T12:07:47.774Z,1.40
2022-12-01T12:11:19.767Z,1.40
2022-12-01T12:14:42.762Z,1.83
2022-12-01T12:17:44.412Z,1.63
2022-12-01T12:21:12.053Z,0.95
2022-12-01T12:24:39.538Z,1.83
2022-12-01T12:28:06.213Z,1.45
2022-12-01T12:31:32.344Z,1.25
2022-12-01T12:34:39.558Z,1.42
2022-12-01T12:37:58.972Z,1.50
2022-12-01T12:41:03.208Z,1.08
2022-12-01T12:44:42.672Z,1.17
2022-12-01T12:47:59.924Z,1.60
2022-12-01T12:51:20.623Z,3.03
2022-12-01T12:54:35.976Z,1.60
2022-12-01T12:57:43.453Z,2.13
2022-12-01T13:00:56.939Z,2.13
2022-12-01T13:04:14.210Z,2.50
2022-12-01T13:07:15.739Z,1.85
2022-12-01T13:10:45.008Z,1.95
2022-12-01T13:14:13.192Z,2.00
2022-12-01T13:17:21.013Z,1.75
2022-12-01T13:20:27.715Z,1.50
2022-12-01T13:23:29.816Z,1.15
2022-12-01T13:26:34.306Z,2.72
2022-12-01T13:29:43.997Z,1.30
2022-12-01T13:32:46.967Z,2.00
2022-12-01T13:36:22.635Z,3.03
2022-12-01T13:39:21.569Z,1.60
2022-12-01T13:42:25.788Z,1.73
2022-12-01T13:45:34.198Z,1.63
2022-12-01T13:48:41.542Z,2.30
2022-12-01T13:52:21.739Z,1.40
2022-12-01T13:55:28.420Z,2.08
2022-12-01T13:58:33.083Z,2.03
2022-12-01T14:01:46.233Z,2.70
2022-12-01T14:04:49.188Z,2.70
2022-12-01T14:07:52.616Z,2.42
2022-12-01T14:10:58.439Z,1.67
2022-12-01T14:14:01.720Z,2.40
2022-12-01T14:17:04.035Z,2.20
2022-12-01T14:20:14.768Z,2.35
2022-12-01T14:23:18.757Z,2.47
2022-12-01T14:26:22.648Z,2.17
2022-12-01T14:29:43.274Z,2.17
2022-12-01T14:32:44.826Z,1.67
2022-12-01T14:35:46.439Z,1.58
2022-12-01T14:38:49.831Z,1.67
2022-12-01T14:41:52.082Z,1.20
2022-12-01T14:44:55.534Z,1.63
2022-12-01T14:48:12.509Z,1.08
2022-12-01T14:51:22.880Z,1.83
2022-12-01T14:54:43.599Z,1.42
2022-12-01T14:58:00.204Z,1.20
2022-12-01T15:01:07.254Z,2.22
2022-12-01T15:04:08.922Z,1.65
2022-12-01T15:07:10.868Z,1.27
2022-12-01T15:10:23.352Z,1.50
2022-12-01T15:13:31.952Z,1.60
2022-12-01T15:16:40.781Z,0.90
2022-12-01T15:19:43.987Z,0.73
2022-12-01T15:22:45.614Z,1.00
2022-12-01T15:25:47.383Z,0.77
2022-12-01T15:28:49.038Z,1.98
2022-12-01T15:31:56.172Z,2.05
2022-12-01T15:35:02.006Z,1.80
2022-12-01T15:38:04.113Z,1.20
2022-12-01T15:41:28.667Z,2.03
2022-12-01T15:44:36.441Z,1.52
2022-12-01T15:47:46.544Z,1.70
2022-12-01T15:51:09.609Z,1.30
2022-12-01T15:54:26.667Z,1.40
2022-12-01T15:57:28.316Z,2.55
2022-12-01T16:00:29.931Z,2.00
2022-12-01T16:03:33.640Z,3.13
2022-12-01T16:06:38.627Z,3.88
2022-12-01T16:09:58.513Z,2.60
2022-12-01T16:13:41.753Z,1.98
2022-12-01T16:16:45.154Z,2.03
2022-12-01T16:19:46.766Z,1.90
2022-12-01T16:22:52.486Z,1.50
2022-12-01T16:25:57.848Z,1.27
2022-12-01T16:29:03.273Z,1.33
2022-12-01T16:32:44.063Z,1.80
2022-12-01T16:35:45.978Z,1.30
2022-12-01T16:38:47.534Z,0.80
2022-12-01T16:41:49.121Z,2.00
2022-12-01T16:44:52.153Z,1.85
2022-12-01T16:47:53.982Z,1.05
2022-12-01T16:50:56.254Z,0.77
2022-12-01T16:53:59.580Z,1.02
2022-12-01T16:57:01.268Z,1.20
2022-12-01T17:00:03.550Z,1.10
2022-12-01T17:03:05.943Z,1.23
2022-12-01T17:06:08.169Z,1.52
2022-12-01T17:09:09.841Z,1.70
2022-12-01T17:12:11.455Z,1.60
2022-12-01T17:15:13.432Z,2.35
2022-12-01T17:18:17.028Z,1.38
2022-12-01T17:21:18.693Z,1.55
2022-12-01T17:24:20.277Z,1.98
2022-12-01T17:27:23.360Z,1.58
2022-12-01T17:30:25.151Z,1.30
2022-12-01T17:33:26.708Z,1.20
2022-12-01T17:36:28.275Z,1.20
2022-12-01T17:39:29.815Z,0.77
2022-12-01T17:42:32.674Z,0.68
2022-12-01T17:45:34.235Z,0.70
2022-12-01T17:48:41.578Z,0.70
2022-12-01T17:51:43.940Z,1.00
2022-12-01T17:54:45.916Z,0.82
2022-12-01T17:57:47.612Z,1.35
2022-12-01T18:00:53.206Z,1.10
2022-12-01T18:03:54.782Z,0.95
2022-12-01T18:06:56.487Z,1.13
2022-12-01T18:09:58.067Z,1.27
2022-12-01T18:12:59.646Z,1.05
2022-12-01T18:16:06.339Z,1.20
2022-12-01T18:19:09.290Z,1.15
2022-12-01T18:22:10.903Z,1.10
2022-12-01T18:25:12.840Z,1.48
2022-12-01T18:28:14.350Z,1.92
2022-12-01T18:31:16.381Z,1.77
2022-12-01T18:34:17.965Z,1.58
2022-12-01T18:37:19.564Z,1.45
2022-12-01T18:40:21.104Z,1.52
2022-12-01T18:43:22.651Z,0.95
2022-12-01T18:46:24.533Z,1.60
2022-12-01T18:49:26.130Z,1.58
2022-12-01T18:52:27.665Z,1.55
2022-12-01T18:55:29.223Z,1.42
2022-12-01T18:58:31.810Z,1.88
2022-12-01T19:01:40.222Z,2.05
2022-12-01T19:04:41.978Z,2.67
2022-12-01T19:07:43.580Z,2.35
2022-12-01T19:10:45.158Z,2.30
2022-12-01T19:13:47.318Z,2.38
2022-12-01T19:16:48.984Z,2.05
2022-12-01T19:19:50.549Z,1.63
2022-12-01T19:22:52.143Z,1.80
2022-12-01T19:25:53.702Z,2.03
2022-12-01T19:28:55.288Z,1.30
2022-12-01T19:31:56.949Z,1.13
2022-12-01T19:34:58.557Z,1.20
2022-12-01T19:38:00.075Z,1.00
2022-12-01T19:41:02.571Z,1.02
2022-12-01T19:44:04.412Z,1.30
2022-12-01T19:47:07.871Z,0.80
2022-12-01T19:50:10.032Z,0.93
2022-12-01T19:53:11.587Z,1.08
2022-12-01T19:56:13.411Z,1.48
2022-12-01T19:59:15.204Z,0.95
2022-12-01T20:02:16.803Z,1.10
2022-12-01T20:05:18.459Z,0.82
2022-12-01T20:08:20.063Z,0.70
2022-12-01T20:11:21.795Z,0.60
2022-12-01T20:14:23.320Z,0.95
2022-12-01T20:17:24.892Z,0.50
2022-12-01T20:20:26.443Z,0.70
2022-12-01T20:23:27.983Z,0.63
2022-12-01T20:26:32.845Z,0.88
2022-12-01T20:29:34.496Z,0.77
2022-12-01T20:32:36.083Z,0.63
2022-12-01T20:35:37.654Z,0.68
2022-12-01T20:38:39.441Z,0.95
2022-12-01T20:41:42.102Z,0.80
2022-12-01T20:44:43.693Z,0.70
2022-12-01T20:47:45.212Z,0.52
2022-12-01T20:50:47.008Z,0.60
2022-12-01T20:54:12.434Z,1.40
2022-12-01T20:57:10.784Z,1.10
2022-12-01T21:00:13.668Z,0.93
2022-12-01T21:03:15.633Z,0.88
2022-12-01T21:06:17.724Z,1.48
2022-12-01T21:09:19.325Z,1.05
2022-12-01T21:12:39.759Z,0.82
2022-12-01T21:15:54.688Z,1.02
2022-12-01T21:19:00.165Z,0.93
2022-12-01T21:22:01.936Z,1.02
2022-12-01T21:25:12.230Z,0.80
2022-12-01T21:28:24.915Z,0.40
2022-12-01T21:31:27.244Z,0.30
2022-12-01T21:34:29.415Z,0.63
2022-12-01T21:37:31.021Z,0.82
2022-12-01T21:40:32.622Z,0.50
2022-12-01T21:43:38.440Z,0.75
2022-12-01T21:46:42.103Z,0.90
2022-12-01T21:49:45.394Z,0.40
2022-12-01T21:52:47.990Z,0.40
2022-12-01T21:55:49.613Z,0.55
2022-12-01T21:58:52.198Z,0.50
2022-12-01T22:01:56.359Z,0.90
2022-12-01T22:04:59.471Z,0.65
2022-12-01T22:08:23.260Z,0.80
2022-12-01T22:11:29.194Z,1.15
2022-12-01T22:14:35.434Z,0.85
2022-12-01T22:17:37.444Z,1.30
2022-12-01T22:20:38.978Z,0.93
2022-12-01T22:23:40.840Z,0.90
2022-12-01T22:26:49.029Z,1.05
2022-12-01T22:29:56.330Z,1.15
2022-12-01T22:33:03.772Z,0.73
2022-12-01T22:36:22.025Z,1.38
2022-12-01T22:39:35.882Z,1.10
2022-12-01T22:42:37.863Z,0.85
2022-12-01T22:45:39.469Z,1.20
2022-12-01T22:48:44.233Z,1.05
2022-12-01T22:52:01.361Z,0.93
2022-12-01T22:55:15.100Z,0.68
2022-12-01T22:58:34.646Z,0.77
2022-12-01T23:01:43.305Z,0.70
2022-12-01T23:04:45.255Z,0.50
2022-12-01T23:07:46.997Z,0.60
2022-12-01T23:10:48.874Z,1.05
2022-12-01T23:13:50.368Z,0.75
2022-12-01T23:16:57.390Z,1.33
2022-12-01T23:20:23.971Z,0.70
2022-12-01T23:23:33.867Z,0.80
2022-12-01T23:26:35.442Z,0.60
2022-12-01T23:29:37.323Z,0.75
2022-12-01T23:32:38.874Z,0.57
2022-12-01T23:35:58.647Z,0.70
2022-12-01T23:39:04.573Z,0.60
2022-12-01T23:42:06.168Z,0.40
2022-12-01T23:45:22.753Z,0.50
2022-12-01T23:48:31.961Z,0.30
2022-12-01T23:51:38.188Z,0.60
2022-12-01T23:54:39.792Z,0.45
2022-12-01T23:57:41.373Z,0.43
